sensor_id;sensor_type;location;lat;lon;timestamp;pressure;altitude;pressure_sealevel;temperature;humidity
12626;BME280;6378;42.684;23.372;2023-04-25T00:00:16;66429.44;;;-144.46;100.00
12626;BME280;6378;42.684;23.372;2023-04-25T00:02:42;66429.44;;;-144.46;100.00
12626;BME280;6378;42.684;23.372;2023-04-25T00:05:08;66429.44;;;-144.46;100.00
12626;BME280;6378;42.684;23.372;2023-04-25T00:07:34;66429.44;;;-144.46;100.00
12626;BME280;6378;42.684;23.372;2023-04-25T00:10:00;66429.44;;;-144.46;100.00
12626;BME280;6378;42.684;23.372;2023-04-25T00:12:25;66429.44;;;-144.46;100.00
12626;BME280;6378;42.684;23.372;2023-04-25T00:14:54;66429.44;;;-144.46;100.00
12626;BME280;6378;42.684;23.372;2023-04-25T00:17:22;66429.44;;;-144.46;100.00
12626;BME280;6378;42.684;23.372;2023-04-25T00:19:50;66429.44;;;-144.46;100.00
12626;BME280;6378;42.684;23.372;2023-04-25T00:22:15;66429.44;;;-144.46;100.00
12626;BME280;6378;42.684;23.372;2023-04-25T00:24:41;66429.44;;;-144.46;100.00
12626;BME280;6378;42.684;23.372;2023-04-25T00:27:07;66429.44;;;-144.46;100.00
12626;BME280;6378;42.684;23.372;2023-04-25T00:29:32;66429.44;;;-144.46;100.00
12626;BME280;6378;42.684;23.372;2023-04-25T00:31:58;66429.44;;;-144.46;100.00
12626;BME280;6378;42.684;23.372;2023-04-25T00:34:23;66429.44;;;-144.46;100.00
12626;BME280;6378;42.684;23.372;2023-04-25T00:36:49;66429.44;;;-144.46;100.00
12626;BME280;6378;42.684;23.372;2023-04-25T00:39:14;66429.44;;;-144.46;100.00
12626;BME280;6378;42.684;23.372;2023-04-25T00:41:40;66429.44;;;-144.46;100.00
12626;BME280;6378;42.684;23.372;2023-04-25T00:44:08;66429.44;;;-144.46;100.00
12626;BME280;6378;42.684;23.372;2023-04-25T00:46:36;66429.44;;;-144.46;100.00
12626;BME280;6378;42.684;23.372;2023-04-25T00:49:02;66429.44;;;-144.46;100.00
12626;BME280;6378;42.684;23.372;2023-04-25T00:51:27;66429.44;;;-144.46;100.00
12626;BME280;6378;42.684;23.372;2023-04-25T00:53:53;66429.44;;;-144.46;100.00
12626;BME280;6378;42.684;23.372;2023-04-25T00:56:19;66429.44;;;-144.46;100.00
12626;BME280;6378;42.684;23.372;2023-04-25T00:58:45;66429.44;;;-144.46;100.00
12626;BME280;6378;42.684;23.372;2023-04-25T01:01:11;66429.44;;;-144.46;100.00
12626;BME280;6378;42.684;23.372;2023-04-25T01:03:38;66429.44;;;-144.46;100.00
12626;BME280;6378;42.684;23.372;2023-04-25T01:06:10;66429.44;;;-144.46;100.00
12626;BME280;6378;42.684;23.372;2023-04-25T01:08:38;66429.44;;;-144.46;100.00
12626;BME280;6378;42.684;23.372;2023-04-25T01:11:04;66429.44;;;-144.46;100.00
12626;BME280;6378;42.684;23.372;2023-04-25T01:13:30;66429.44;;;-144.46;100.00
12626;BME280;6378;42.684;23.372;2023-04-25T01:15:57;66429.44;;;-144.46;100.00
12626;BME280;6378;42.684;23.372;2023-04-25T01:18:23;66429.44;;;-144.46;100.00
12626;BME280;6378;42.684;23.372;2023-04-25T01:20:51;66429.44;;;-144.46;100.00
12626;BME280;6378;42.684;23.372;2023-04-25T01:23:18;66429.44;;;-144.46;100.00
12626;BME280;6378;42.684;23.372;2023-04-25T01:25:45;66429.44;;;-144.46;100.00
12626;BME280;6378;42.684;23.372;2023-04-25T01:28:11;66429.44;;;-144.46;100.00
12626;BME280;6378;42.684;23.372;2023-04-25T01:30:37;66429.44;;;-144.46;100.00
12626;BME280;6378;42.684;23.372;2023-04-25T01:33:03;66429.44;;;-144.46;100.00
12626;BME280;6378;42.684;23.372;2023-04-25T01:35:29;66429.44;;;-144.46;100.00
12626;BME280;6378;42.684;23.372;2023-04-25T01:37:55;66429.44;;;-144.46;100.00
12626;BME280;6378;42.684;23.372;2023-04-25T01:40:21;66429.44;;;-144.46;100.00
12626;BME280;6378;42.684;23.372;2023-04-25T01:42:48;66429.44;;;-144.46;100.00
12626;BME280;6378;42.684;23.372;2023-04-25T01:45:13;66429.44;;;-144.46;100.00
12626;BME280;6378;42.684;23.372;2023-04-25T01:47:39;66429.44;;;-144.46;100.00
12626;BME280;6378;42.684;23.372;2023-04-25T01:50:06;66429.44;;;-144.46;100.00
12626;BME280;6378;42.684;23.372;2023-04-25T01:52:32;66429.44;;;-144.46;100.00
12626;BME280;6378;42.684;23.372;2023-04-25T01:55:02;66429.44;;;-144.46;100.00
12626;BME280;6378;42.684;23.372;2023-04-25T01:57:27;66429.44;;;-144.46;100.00
12626;BME280;6378;42.684;23.372;2023-04-25T02:00:05;66429.44;;;-144.46;100.00
12626;BME280;6378;42.684;23.372;2023-04-25T02:02:32;66429.44;;;-144.46;100.00
12626;BME280;6378;42.684;23.372;2023-04-25T02:04:57;66429.44;;;-144.46;100.00
12626;BME280;6378;42.684;23.372;2023-04-25T02:07:22;66429.44;;;-144.46;100.00
12626;BME280;6378;42.684;23.372;2023-04-25T02:09:48;66429.44;;;-144.46;100.00
12626;BME280;6378;42.684;23.372;2023-04-25T02:12:13;66429.44;;;-144.46;100.00
12626;BME280;6378;42.684;23.372;2023-04-25T02:14:39;66429.44;;;-144.46;100.00
12626;BME280;6378;42.684;23.372;2023-04-25T02:17:05;66429.44;;;-144.46;100.00
12626;BME280;6378;42.684;23.372;2023-04-25T02:19:30;66429.44;;;-144.46;100.00
12626;BME280;6378;42.684;23.372;2023-04-25T02:21:56;66429.44;;;-144.46;100.00
12626;BME280;6378;42.684;23.372;2023-04-25T02:24:22;66429.44;;;-144.46;100.00
12626;BME280;6378;42.684;23.372;2023-04-25T02:26:48;66429.44;;;-144.46;100.00
12626;BME280;6378;42.684;23.372;2023-04-25T02:29:14;66429.44;;;-144.46;100.00
12626;BME280;6378;42.684;23.372;2023-04-25T02:31:40;66429.44;;;-144.46;100.00
12626;BME280;6378;42.684;23.372;2023-04-25T02:34:05;66429.44;;;-144.46;100.00
12626;BME280;6378;42.684;23.372;2023-04-25T02:36:31;66429.44;;;-144.46;100.00
12626;BME280;6378;42.684;23.372;2023-04-25T02:38:59;66429.44;;;-144.46;100.00
12626;BME280;6378;42.684;23.372;2023-04-25T02:41:26;66429.44;;;-144.46;100.00
12626;BME280;6378;42.684;23.372;2023-04-25T02:43:51;66429.44;;;-144.46;100.00
12626;BME280;6378;42.684;23.372;2023-04-25T02:46:16;66429.44;;;-144.46;100.00
12626;BME280;6378;42.684;23.372;2023-04-25T02:48:42;66429.44;;;-144.46;100.00
12626;BME280;6378;42.684;23.372;2023-04-25T02:51:07;66429.44;;;-144.46;100.00
12626;BME280;6378;42.684;23.372;2023-04-25T02:53:33;66429.44;;;-144.46;100.00
12626;BME280;6378;42.684;23.372;2023-04-25T02:55:58;66429.44;;;-144.46;100.00
12626;BME280;6378;42.684;23.372;2023-04-25T02:58:24;66429.44;;;-144.46;100.00
12626;BME280;6378;42.684;23.372;2023-04-25T03:00:50;66429.44;;;-144.46;100.00
12626;BME280;6378;42.684;23.372;2023-04-25T03:03:15;66429.44;;;-144.46;100.00
12626;BME280;6378;42.684;23.372;2023-04-25T03:05:43;66429.44;;;-144.46;100.00
12626;BME280;6378;42.684;23.372;2023-04-25T03:08:09;66429.44;;;-144.46;100.00
12626;BME280;6378;42.684;23.372;2023-04-25T03:10:34;66429.44;;;-144.46;100.00
12626;BME280;6378;42.684;23.372;2023-04-25T03:13:00;66429.44;;;-144.46;100.00
12626;BME280;6378;42.684;23.372;2023-04-25T03:15:25;66429.44;;;-144.46;100.00
12626;BME280;6378;42.684;23.372;2023-04-25T03:17:51;66429.44;;;-144.46;100.00
12626;BME280;6378;42.684;23.372;2023-04-25T03:20:16;66429.44;;;-144.46;100.00
12626;BME280;6378;42.684;23.372;2023-04-25T03:22:42;66429.44;;;-144.46;100.00
12626;BME280;6378;42.684;23.372;2023-04-25T03:25:07;66429.44;;;-144.46;100.00
12626;BME280;6378;42.684;23.372;2023-04-25T03:27:33;66429.44;;;-144.46;100.00
12626;BME280;6378;42.684;23.372;2023-04-25T03:29:58;66429.44;;;-144.46;100.00
12626;BME280;6378;42.684;23.372;2023-04-25T03:32:24;66429.44;;;-144.46;100.00
12626;BME280;6378;42.684;23.372;2023-04-25T03:34:50;66429.44;;;-144.46;100.00
12626;BME280;6378;42.684;23.372;2023-04-25T03:37:15;66429.44;;;-144.46;100.00
12626;BME280;6378;42.684;23.372;2023-04-25T03:39:41;66429.44;;;-144.46;100.00
12626;BME280;6378;42.684;23.372;2023-04-25T03:42:06;66429.44;;;-144.46;100.00
12626;BME280;6378;42.684;23.372;2023-04-25T03:44:32;66429.44;;;-144.46;100.00
12626;BME280;6378;42.684;23.372;2023-04-25T03:46:57;66429.44;;;-144.46;100.00
12626;BME280;6378;42.684;23.372;2023-04-25T03:49:23;66429.44;;;-144.46;100.00
12626;BME280;6378;42.684;23.372;2023-04-25T03:51:48;66429.44;;;-144.46;100.00
12626;BME280;6378;42.684;23.372;2023-04-25T03:54:13;66429.44;;;-144.46;100.00
12626;BME280;6378;42.684;23.372;2023-04-25T03:56:39;66429.44;;;-144.46;100.00
12626;BME280;6378;42.684;23.372;2023-04-25T03:59:04;66429.44;;;-144.46;100.00
12626;BME280;6378;42.684;23.372;2023-04-25T04:01:30;66429.44;;;-144.46;100.00
12626;BME280;6378;42.684;23.372;2023-04-25T04:03:55;66429.44;;;-144.46;100.00
12626;BME280;6378;42.684;23.372;2023-04-25T04:06:21;66429.44;;;-144.46;100.00
12626;BME280;6378;42.684;23.372;2023-04-25T04:08:46;66429.44;;;-144.46;100.00
12626;BME280;6378;42.684;23.372;2023-04-25T04:11:12;66429.44;;;-144.46;100.00
12626;BME280;6378;42.684;23.372;2023-04-25T04:13:37;66429.44;;;-144.46;100.00
12626;BME280;6378;42.684;23.372;2023-04-25T04:16:03;66429.44;;;-144.46;100.00
12626;BME280;6378;42.684;23.372;2023-04-25T04:18:30;66429.44;;;-144.46;100.00
12626;BME280;6378;42.684;23.372;2023-04-25T04:20:55;66429.44;;;-144.46;100.00
12626;BME280;6378;42.684;23.372;2023-04-25T04:23:23;66429.44;;;-144.46;100.00
12626;BME280;6378;42.684;23.372;2023-04-25T04:25:48;66429.44;;;-144.46;100.00
12626;BME280;6378;42.684;23.372;2023-04-25T04:28:14;66429.44;;;-144.46;100.00
12626;BME280;6378;42.684;23.372;2023-04-25T04:30:41;66429.44;;;-144.46;100.00
12626;BME280;6378;42.684;23.372;2023-04-25T04:33:08;66429.44;;;-144.46;100.00
12626;BME280;6378;42.684;23.372;2023-04-25T04:35:34;66429.44;;;-144.46;100.00
12626;BME280;6378;42.684;23.372;2023-04-25T04:37:59;66429.44;;;-144.46;100.00
12626;BME280;6378;42.684;23.372;2023-04-25T04:40:25;66429.44;;;-144.46;100.00
12626;BME280;6378;42.684;23.372;2023-04-25T04:42:50;66429.44;;;-144.46;100.00
12626;BME280;6378;42.684;23.372;2023-04-25T04:45:16;66429.44;;;-144.46;100.00
12626;BME280;6378;42.684;23.372;2023-04-25T04:47:42;66429.44;;;-144.46;100.00
12626;BME280;6378;42.684;23.372;2023-04-25T04:50:09;66429.44;;;-144.46;100.00
12626;BME280;6378;42.684;23.372;2023-04-25T04:52:35;66429.44;;;-144.46;100.00
12626;BME280;6378;42.684;23.372;2023-04-25T04:55:01;66429.44;;;-144.46;100.00
12626;BME280;6378;42.684;23.372;2023-04-25T04:57:28;66429.44;;;-144.46;100.00
12626;BME280;6378;42.684;23.372;2023-04-25T04:59:53;66429.44;;;-144.46;100.00
12626;BME280;6378;42.684;23.372;2023-04-25T05:02:19;66429.44;;;-144.46;100.00
12626;BME280;6378;42.684;23.372;2023-04-25T05:04:44;66429.44;;;-144.46;100.00
12626;BME280;6378;42.684;23.372;2023-04-25T05:07:10;66429.44;;;-144.46;100.00
12626;BME280;6378;42.684;23.372;2023-04-25T05:09:35;66429.44;;;-144.46;100.00
12626;BME280;6378;42.684;23.372;2023-04-25T05:12:01;66429.44;;;-144.46;100.00
12626;BME280;6378;42.684;23.372;2023-04-25T05:14:26;66429.44;;;-144.46;100.00
12626;BME280;6378;42.684;23.372;2023-04-25T05:16:51;66429.44;;;-144.46;100.00
12626;BME280;6378;42.684;23.372;2023-04-25T05:19:17;66429.44;;;-144.46;100.00
12626;BME280;6378;42.684;23.372;2023-04-25T05:21:42;66429.44;;;-144.46;100.00
12626;BME280;6378;42.684;23.372;2023-04-25T05:24:08;66429.44;;;-144.46;100.00
12626;BME280;6378;42.684;23.372;2023-04-25T05:26:34;66429.44;;;-144.46;100.00
12626;BME280;6378;42.684;23.372;2023-04-25T05:28:59;66429.44;;;-144.46;100.00
12626;BME280;6378;42.684;23.372;2023-04-25T05:31:25;66429.44;;;-144.46;100.00
12626;BME280;6378;42.684;23.372;2023-04-25T05:33:51;66429.44;;;-144.46;100.00
12626;BME280;6378;42.684;23.372;2023-04-25T05:36:18;66429.44;;;-144.46;100.00
12626;BME280;6378;42.684;23.372;2023-04-25T05:38:44;66429.44;;;-144.46;100.00
12626;BME280;6378;42.684;23.372;2023-04-25T05:41:10;66429.44;;;-144.46;100.00
12626;BME280;6378;42.684;23.372;2023-04-25T05:43:35;66429.44;;;-144.46;100.00
12626;BME280;6378;42.684;23.372;2023-04-25T05:46:00;66429.44;;;-144.46;100.00
12626;BME280;6378;42.684;23.372;2023-04-25T05:48:26;66429.44;;;-144.46;100.00
12626;BME280;6378;42.684;23.372;2023-04-25T05:50:51;66429.44;;;-144.46;100.00
12626;BME280;6378;42.684;23.372;2023-04-25T05:53:18;66429.44;;;-144.46;100.00
12626;BME280;6378;42.684;23.372;2023-04-25T05:55:43;66429.44;;;-144.46;100.00
12626;BME280;6378;42.684;23.372;2023-04-25T05:58:09;66429.44;;;-144.46;100.00
12626;BME280;6378;42.684;23.372;2023-04-25T06:00:34;66429.44;;;-144.46;100.00
12626;BME280;6378;42.684;23.372;2023-04-25T06:03:00;66429.44;;;-144.46;100.00
12626;BME280;6378;42.684;23.372;2023-04-25T06:05:26;66429.44;;;-144.46;100.00
12626;BME280;6378;42.684;23.372;2023-04-25T06:07:51;66429.44;;;-144.46;100.00
12626;BME280;6378;42.684;23.372;2023-04-25T06:10:17;66429.44;;;-144.46;100.00
12626;BME280;6378;42.684;23.372;2023-04-25T06:12:43;66429.44;;;-144.46;100.00
12626;BME280;6378;42.684;23.372;2023-04-25T06:15:09;66429.44;;;-144.46;100.00
12626;BME280;6378;42.684;23.372;2023-04-25T06:17:35;66429.44;;;-144.46;100.00
12626;BME280;6378;42.684;23.372;2023-04-25T06:20:01;66429.44;;;-144.46;100.00
12626;BME280;6378;42.684;23.372;2023-04-25T06:25:11;66429.44;;;-144.46;100.00
12626;BME280;6378;42.684;23.372;2023-04-25T06:27:36;66429.44;;;-144.46;100.00
12626;BME280;6378;42.684;23.372;2023-04-25T06:30:02;66429.44;;;-144.46;100.00
12626;BME280;6378;42.684;23.372;2023-04-25T06:32:27;66429.44;;;-144.46;100.00
12626;BME280;6378;42.684;23.372;2023-04-25T06:34:54;66429.44;;;-144.46;100.00
12626;BME280;6378;42.684;23.372;2023-04-25T06:37:20;66429.44;;;-144.46;100.00
12626;BME280;6378;42.684;23.372;2023-04-25T06:39:45;66429.44;;;-144.46;100.00
12626;BME280;6378;42.684;23.372;2023-04-25T06:42:11;66429.44;;;-144.46;100.00
12626;BME280;6378;42.684;23.372;2023-04-25T06:44:37;66429.44;;;-144.46;100.00
12626;BME280;6378;42.684;23.372;2023-04-25T06:47:02;66429.44;;;-144.46;100.00
12626;BME280;6378;42.684;23.372;2023-04-25T06:49:28;66429.44;;;-144.46;100.00
12626;BME280;6378;42.684;23.372;2023-04-25T06:51:53;66429.44;;;-144.46;100.00
12626;BME280;6378;42.684;23.372;2023-04-25T07:07:33;94237.41;;;15.27;100.00
12626;BME280;6378;42.684;23.372;2023-04-25T07:09:59;94242.88;;;15.12;100.00
12626;BME280;6378;42.684;23.372;2023-04-25T07:12:24;94241.41;;;14.87;100.00
12626;BME280;6378;42.684;23.372;2023-04-25T07:14:50;94237.19;;;14.71;100.00
12626;BME280;6378;42.684;23.372;2023-04-25T07:17:15;94236.00;;;14.76;100.00
12626;BME280;6378;42.684;23.372;2023-04-25T07:19:41;94235.63;;;14.85;100.00
12626;BME280;6378;42.684;23.372;2023-04-25T07:22:06;94234.47;;;14.89;100.00
12626;BME280;6378;42.684;23.372;2023-04-25T07:24:32;94236.00;;;14.76;100.00
12626;BME280;6378;42.684;23.372;2023-04-25T07:26:57;94229.84;;;14.61;100.00
12626;BME280;6378;42.684;23.372;2023-04-25T07:29:23;94224.84;;;14.56;100.00
12626;BME280;6378;42.684;23.372;2023-04-25T07:31:49;94233.72;;;14.71;100.00
12626;BME280;6378;42.684;23.372;2023-04-25T07:34:14;94237.19;;;14.79;100.00
12626;BME280;6378;42.684;23.372;2023-04-25T07:36:40;94234.81;;;14.95;100.00
12626;BME280;6378;42.684;23.372;2023-04-25T07:39:06;94235.09;;;15.25;100.00
12626;BME280;6378;42.684;23.372;2023-04-25T07:41:32;94227.19;;;15.59;100.00
12626;BME280;6378;42.684;23.372;2023-04-25T07:43:58;94229.53;;;15.57;100.00
12626;BME280;6378;42.684;23.372;2023-04-25T07:46:23;94224.34;;;15.80;100.00
12626;BME280;6378;42.684;23.372;2023-04-25T07:48:49;94217.66;;;15.95;100.00
12626;BME280;6378;42.684;23.372;2023-04-25T07:51:14;94216.06;;;16.01;100.00
12626;BME280;6378;42.684;23.372;2023-04-25T07:53:40;94216.75;;;16.13;100.00
12626;BME280;6378;42.684;23.372;2023-04-25T07:56:06;94208.91;;;16.25;100.00
12626;BME280;6378;42.684;23.372;2023-04-25T07:58:31;94211.31;;;16.13;100.00
12626;BME280;6378;42.684;23.372;2023-04-25T08:00:59;94209.72;;;16.19;100.00
12626;BME280;6378;42.684;23.372;2023-04-25T08:03:25;94202.34;;;16.19;100.00
12626;BME280;6378;42.684;23.372;2023-04-25T08:05:50;94193.09;;;16.17;100.00
12626;BME280;6378;42.684;23.372;2023-04-25T08:08:19;94203.88;;;16.24;100.00
12626;BME280;6378;42.684;23.372;2023-04-25T08:10:53;94200.69;;;16.32;100.00
12626;BME280;6378;42.684;23.372;2023-04-25T08:13:18;94197.47;;;16.44;100.00
12626;BME280;6378;42.684;23.372;2023-04-25T08:15:44;94211.66;;;16.66;100.00
12626;BME280;6378;42.684;23.372;2023-04-25T08:18:09;94209.88;;;16.86;100.00
12626;BME280;6378;42.684;23.372;2023-04-25T08:20:41;94201.66;;;16.94;100.00
12626;BME280;6378;42.684;23.372;2023-04-25T08:23:34;94193.56;;;16.86;100.00
12626;BME280;6378;42.684;23.372;2023-04-25T08:25:59;94192.44;;;16.84;100.00
12626;BME280;6378;42.684;23.372;2023-04-25T08:28:25;94183.53;;;16.83;100.00
12626;BME280;6378;42.684;23.372;2023-04-25T08:30:51;94190.22;;;16.75;100.00
12626;BME280;6378;42.684;23.372;2023-04-25T08:36:38;94179.25;;;17.16;100.00
12626;BME280;6378;42.684;23.372;2023-04-25T08:39:04;94177.09;;;17.31;100.00
12626;BME280;6378;42.684;23.372;2023-04-25T08:41:29;94181.56;;;17.18;100.00
12626;BME280;6378;42.684;23.372;2023-04-25T08:43:56;94182.34;;;17.18;99.68
12626;BME280;6378;42.684;23.372;2023-04-25T08:46:25;94194.78;;;17.16;100.00
12626;BME280;6378;42.684;23.372;2023-04-25T08:48:53;94201.38;;;16.84;100.00
12626;BME280;6378;42.684;23.372;2023-04-25T08:51:23;94213.03;;;16.40;100.00
12626;BME280;6378;42.684;23.372;2023-04-25T08:53:53;94216.19;;;15.87;100.00
12626;BME280;6378;42.684;23.372;2023-04-25T08:56:19;94224.16;;;15.46;100.00
12626;BME280;6378;42.684;23.372;2023-04-25T08:58:48;94232.84;;;15.02;100.00
12626;BME280;6378;42.684;23.372;2023-04-25T09:01:18;94223.19;;;14.91;100.00
12626;BME280;6378;42.684;23.372;2023-04-25T09:03:44;94214.66;;;14.96;100.00
12626;BME280;6378;42.684;23.372;2023-04-25T09:06:13;94200.69;;;15.11;100.00
12626;BME280;6378;42.684;23.372;2023-04-25T09:08:38;94191.31;;;15.27;100.00
12626;BME280;6378;42.684;23.372;2023-04-25T09:11:06;94197.13;;;15.29;100.00
12626;BME280;6378;42.684;23.372;2023-04-25T09:13:32;94190.09;;;15.38;100.00
12626;BME280;6378;42.684;23.372;2023-04-25T09:15:58;94178.84;;;15.43;100.00
12626;BME280;6378;42.684;23.372;2023-04-25T09:18:34;94175.22;;;15.64;100.00
12626;BME280;6378;42.684;23.372;2023-04-25T09:21:11;94174.91;;;16.10;100.00
12626;BME280;6378;42.684;23.372;2023-04-25T09:23:41;94161.94;;;16.69;100.00
12626;BME280;6378;42.684;23.372;2023-04-25T09:26:07;94167.88;;;16.95;100.00
12626;BME280;6378;42.684;23.372;2023-04-25T09:28:34;94164.13;;;16.81;100.00
12626;BME280;6378;42.684;23.372;2023-04-25T09:31:00;94164.50;;;16.83;100.00
12626;BME280;6378;42.684;23.372;2023-04-25T09:33:33;94157.78;;;16.92;100.00
12626;BME280;6378;42.684;23.372;2023-04-25T09:36:06;94148.25;;;16.76;100.00
12626;BME280;6378;42.684;23.372;2023-04-25T09:38:34;94167.72;;;16.71;100.00
12626;BME280;6378;42.684;23.372;2023-04-25T09:41:05;94148.41;;;16.66;100.00
12626;BME280;6378;42.684;23.372;2023-04-25T09:43:30;94163.84;;;16.72;100.00
12626;BME280;6378;42.684;23.372;2023-04-25T09:45:56;94157.97;;;16.77;100.00
12626;BME280;6378;42.684;23.372;2023-04-25T09:48:26;94153.19;;;16.88;100.00
12626;BME280;6378;42.684;23.372;2023-04-25T09:51:09;94148.97;;;17.14;100.00
12626;BME280;6378;42.684;23.372;2023-04-25T09:53:43;94148.84;;;17.25;100.00
12626;BME280;6378;42.684;23.372;2023-04-25T09:56:11;94145.03;;;17.46;100.00
12626;BME280;6378;42.684;23.372;2023-04-25T09:58:38;94147.22;;;17.58;100.00
12626;BME280;6378;42.684;23.372;2023-04-25T10:01:07;94147.00;;;17.45;100.00
12626;BME280;6378;42.684;23.372;2023-04-25T10:03:34;94164.31;;;17.58;100.00
12626;BME280;6378;42.684;23.372;2023-04-25T10:06:04;94174.19;;;17.45;100.00
12626;BME280;6378;42.684;23.372;2023-04-25T10:08:34;66429.44;;;-144.46;100.00
12626;BME280;6378;42.684;23.372;2023-04-25T10:11:05;94162.31;;;17.02;100.00
12626;BME280;6378;42.684;23.372;2023-04-25T10:13:31;94149.47;;;16.75;100.00
12626;BME280;6378;42.684;23.372;2023-04-25T10:16:02;94153.25;;;16.81;100.00
12626;BME280;6378;42.684;23.372;2023-04-25T10:18:29;94143.28;;;16.71;100.00
12626;BME280;6378;42.684;23.372;2023-04-25T10:20:56;94150.78;;;16.60;100.00
12626;BME280;6378;42.684;23.372;2023-04-25T10:23:23;94170.94;;;16.63;100.00
12626;BME280;6378;42.684;23.372;2023-04-25T10:25:51;94183.63;;;16.73;100.00
12626;BME280;6378;42.684;23.372;2023-04-25T10:28:17;94182.50;;;16.70;100.00
12626;BME280;6378;42.684;23.372;2023-04-25T10:31:02;94179.81;;;16.67;100.00
12626;BME280;6378;42.684;23.372;2023-04-25T10:33:37;94159.44;;;16.85;100.00
12626;BME280;6378;42.684;23.372;2023-04-25T10:36:11;94144.91;;;16.65;100.00
12626;BME280;6378;42.684;23.372;2023-04-25T10:38:38;94140.34;;;16.55;100.00
12626;BME280;6378;42.684;23.372;2023-04-25T10:41:08;94165.75;;;16.75;100.00
12626;BME280;6378;42.684;23.372;2023-04-25T10:43:41;94175.59;;;16.62;100.00
12626;BME280;6378;42.684;23.372;2023-04-25T10:46:16;94188.66;;;15.85;100.00
12626;BME280;6378;42.684;23.372;2023-04-25T10:51:16;94157.69;;;15.79;100.00
12626;BME280;6378;42.684;23.372;2023-04-25T10:53:46;94158.88;;;15.75;100.00
12626;BME280;6378;42.684;23.372;2023-04-25T10:56:22;94160.22;;;16.04;100.00
12626;BME280;6378;42.684;23.372;2023-04-25T10:58:48;94163.56;;;15.71;100.00
12626;BME280;6378;42.684;23.372;2023-04-25T11:01:15;94160.75;;;15.85;100.00
12626;BME280;6378;42.684;23.372;2023-04-25T11:03:44;94154.72;;;16.11;100.00
12626;BME280;6378;42.684;23.372;2023-04-25T11:06:20;94116.88;;;15.93;100.00
12626;BME280;6378;42.684;23.372;2023-04-25T11:08:49;94147.72;;;16.14;100.00
12626;BME280;6378;42.684;23.372;2023-04-25T11:11:17;94115.31;;;15.96;100.00
12626;BME280;6378;42.684;23.372;2023-04-25T11:13:43;94124.19;;;16.00;100.00
12626;BME280;6378;42.684;23.372;2023-04-25T11:16:09;94123.81;;;16.39;100.00
12626;BME280;6378;42.684;23.372;2023-04-25T11:18:34;94124.81;;;16.52;100.00
12626;BME280;6378;42.684;23.372;2023-04-25T11:21:00;94113.22;;;16.52;100.00
12626;BME280;6378;42.684;23.372;2023-04-25T11:23:26;94112.47;;;16.47;100.00
12626;BME280;6378;42.684;23.372;2023-04-25T11:25:55;94095.84;;;16.42;100.00
12626;BME280;6378;42.684;23.372;2023-04-25T11:28:21;94118.50;;;16.66;100.00
12626;BME280;6378;42.684;23.372;2023-04-25T11:30:50;94119.78;;;16.54;100.00
12626;BME280;6378;42.684;23.372;2023-04-25T11:33:16;94109.72;;;16.51;100.00
12626;BME280;6378;42.684;23.372;2023-04-25T11:35:42;94112.78;;;16.53;95.57
12626;BME280;6378;42.684;23.372;2023-04-25T11:38:07;94112.38;;;16.58;100.00
12626;BME280;6378;42.684;23.372;2023-04-25T11:40:35;94129.41;;;16.62;100.00
12626;BME280;6378;42.684;23.372;2023-04-25T11:43:01;94133.94;;;16.72;100.00
12626;BME280;6378;42.684;23.372;2023-04-25T11:45:26;94144.88;;;16.69;100.00
12626;BME280;6378;42.684;23.372;2023-04-25T11:47:52;94152.63;;;16.70;100.00
12626;BME280;6378;42.684;23.372;2023-04-25T11:50:18;94091.63;;;16.37;100.00
12626;BME280;6378;42.684;23.372;2023-04-25T11:52:46;94131.66;;;16.71;100.00
12626;BME280;6378;42.684;23.372;2023-04-25T11:55:16;94149.34;;;16.82;100.00
12626;BME280;6378;42.684;23.372;2023-04-25T11:57:44;94127.88;;;16.58;100.00
12626;BME280;6378;42.684;23.372;2023-04-25T12:00:18;94123.47;;;16.33;100.00
12626;BME280;6378;42.684;23.372;2023-04-25T12:02:52;94130.84;;;16.36;100.00
12626;BME280;6378;42.684;23.372;2023-04-25T12:05:19;94098.69;;;16.31;100.00
12626;BME280;6378;42.684;23.372;2023-04-25T12:07:45;66429.44;;;-144.46;100.00
12626;BME280;6378;42.684;23.372;2023-04-25T12:10:13;94117.44;;;16.53;100.00
12626;BME280;6378;42.684;23.372;2023-04-25T12:12:42;94104.34;;;16.53;99.13
12626;BME280;6378;42.684;23.372;2023-04-25T12:15:09;66429.44;;;-144.46;100.00
12626;BME280;6378;42.684;23.372;2023-04-25T12:17:35;94104.34;;;16.44;99.13
12626;BME280;6378;42.684;23.372;2023-04-25T12:20:10;94121.25;;;16.62;94.53
12626;BME280;6378;42.684;23.372;2023-04-25T12:22:36;94111.66;;;16.51;96.57
12626;BME280;6378;42.684;23.372;2023-04-25T12:25:02;94115.88;;;16.18;96.22
12626;BME280;6378;42.684;23.372;2023-04-25T12:27:30;94110.84;;;16.54;100.00
12626;BME280;6378;42.684;23.372;2023-04-25T12:29:57;94112.44;;;16.51;92.01
12626;BME280;6378;42.684;23.372;2023-04-25T12:32:23;94081.94;;;15.99;89.35
12626;BME280;6378;42.684;23.372;2023-04-25T12:34:48;94116.19;;;16.23;95.28
12626;BME280;6378;42.684;23.372;2023-04-25T12:37:14;94136.56;;;16.42;92.74
12626;BME280;6378;42.684;23.372;2023-04-25T12:39:40;94154.84;;;16.38;99.30
12626;BME280;6378;42.684;23.372;2023-04-25T12:42:05;94153.38;;;15.27;100.00
12626;BME280;6378;42.684;23.372;2023-04-25T12:44:33;94188.50;;;14.61;100.00
12626;BME280;6378;42.684;23.372;2023-04-25T12:46:58;94193.94;;;13.86;100.00
12626;BME280;6378;42.684;23.372;2023-04-25T12:49:24;94198.56;;;13.68;100.00
12626;BME280;6378;42.684;23.372;2023-04-25T12:51:50;94201.97;;;13.26;100.00
12626;BME280;6378;42.684;23.372;2023-04-25T12:54:17;94189.97;;;13.13;100.00
12626;BME280;6378;42.684;23.372;2023-04-25T12:56:42;94191.56;;;13.35;100.00
12626;BME280;6378;42.684;23.372;2023-04-25T12:59:08;94210.91;;;13.48;100.00